sensor_id;sensor_type;location;lat;lon;timestamp;temperature;humidity
14140;DHT22;7150;53.514;9.988;2023-06-26T00:01:37;25.30;95.80
14140;DHT22;7150;53.514;9.988;2023-06-26T00:04:05;25.20;95.80
14140;DHT22;7150;53.514;9.988;2023-06-26T00:06:31;25.20;95.70
14140;DHT22;7150;53.514;9.988;2023-06-26T00:08:56;25.20;95.80
14140;DHT22;7150;53.514;9.988;2023-06-26T00:11:24;25.20;95.90
14140;DHT22;7150;53.514;9.988;2023-06-26T00:13:50;25.20;95.90
14140;DHT22;7150;53.514;9.988;2023-06-26T00:16:15;25.10;95.90
14140;DHT22;7150;53.514;9.988;2023-06-26T00:18:41;25.20;96.00
14140;DHT22;7150;53.514;9.988;2023-06-26T00:21:07;25.10;96.00
14140;DHT22;7150;53.514;9.988;2023-06-26T00:23:32;25.10;96.10
14140;DHT22;7150;53.514;9.988;2023-06-26T00:26:05;25.10;96.10
14140;DHT22;7150;53.514;9.988;2023-06-26T00:28:30;25.00;96.10
14140;DHT22;7150;53.514;9.988;2023-06-26T00:30:56;25.00;96.10
14140;DHT22;7150;53.514;9.988;2023-06-26T00:33:21;25.00;96.30
14140;DHT22;7150;53.514;9.988;2023-06-26T00:35:47;24.90;96.30
14140;DHT22;7150;53.514;9.988;2023-06-26T00:38:12;24.90;96.30
14140;DHT22;7150;53.514;9.988;2023-06-26T00:40:38;24.90;96.40
14140;DHT22;7150;53.514;9.988;2023-06-26T00:43:03;24.90;96.50
14140;DHT22;7150;53.514;9.988;2023-06-26T00:45:29;24.90;96.50
14140;DHT22;7150;53.514;9.988;2023-06-26T00:47:54;24.90;96.40
14140;DHT22;7150;53.514;9.988;2023-06-26T00:50:20;24.90;96.50
14140;DHT22;7150;53.514;9.988;2023-06-26T00:52:46;24.90;96.50
14140;DHT22;7150;53.514;9.988;2023-06-26T00:55:12;24.80;96.40
14140;DHT22;7150;53.514;9.988;2023-06-26T00:57:37;24.80;96.50
14140;DHT22;7150;53.514;9.988;2023-06-26T01:00:04;24.80;96.40
14140;DHT22;7150;53.514;9.988;2023-06-26T01:02:30;24.80;96.50
14140;DHT22;7150;53.514;9.988;2023-06-26T01:04:59;24.80;96.40
14140;DHT22;7150;53.514;9.988;2023-06-26T01:07:28;24.70;96.60
14140;DHT22;7150;53.514;9.988;2023-06-26T01:09:54;24.70;96.60
14140;DHT22;7150;53.514;9.988;2023-06-26T01:12:19;24.70;96.70
14140;DHT22;7150;53.514;9.988;2023-06-26T01:14:45;24.70;96.70
14140;DHT22;7150;53.514;9.988;2023-06-26T01:17:11;24.60;96.70
14140;DHT22;7150;53.514;9.988;2023-06-26T01:19:41;24.60;96.90
14140;DHT22;7150;53.514;9.988;2023-06-26T01:22:20;24.60;96.90
14140;DHT22;7150;53.514;9.988;2023-06-26T01:25:11;24.50;97.00
14140;DHT22;7150;53.514;9.988;2023-06-26T01:27:38;24.40;97.10
14140;DHT22;7150;53.514;9.988;2023-06-26T01:30:04;24.40;97.30
14140;DHT22;7150;53.514;9.988;2023-06-26T01:32:31;24.40;97.20
14140;DHT22;7150;53.514;9.988;2023-06-26T01:34:59;24.30;97.30
14140;DHT22;7150;53.514;9.988;2023-06-26T01:37:25;24.40;97.40
14140;DHT22;7150;53.514;9.988;2023-06-26T01:39:50;24.40;97.40
14140;DHT22;7150;53.514;9.988;2023-06-26T01:42:16;24.40;97.30
14140;DHT22;7150;53.514;9.988;2023-06-26T01:44:46;24.40;97.30
14140;DHT22;7150;53.514;9.988;2023-06-26T01:47:16;24.40;97.40
14140;DHT22;7150;53.514;9.988;2023-06-26T01:50:07;24.30;97.50
14140;DHT22;7150;53.514;9.988;2023-06-26T01:52:46;24.20;97.60
14140;DHT22;7150;53.514;9.988;2023-06-26T01:55:30;24.20;97.60
14140;DHT22;7150;53.514;9.988;2023-06-26T01:57:59;24.10;97.70
14140;DHT22;7150;53.514;9.988;2023-06-26T02:00:25;24.10;97.70
14140;DHT22;7150;53.514;9.988;2023-06-26T02:02:52;24.10;97.80
14140;DHT22;7150;53.514;9.988;2023-06-26T02:05:17;24.10;97.80
14140;DHT22;7150;53.514;9.988;2023-06-26T02:07:43;24.20;97.80
14140;DHT22;7150;53.514;9.988;2023-06-26T02:10:09;24.10;97.70
14140;DHT22;7150;53.514;9.988;2023-06-26T02:12:36;24.10;97.70
14140;DHT22;7150;53.514;9.988;2023-06-26T02:15:02;24.00;97.80
14140;DHT22;7150;53.514;9.988;2023-06-26T02:17:28;24.10;97.90
14140;DHT22;7150;53.514;9.988;2023-06-26T02:19:53;24.10;97.80
14140;DHT22;7150;53.514;9.988;2023-06-26T02:22:19;24.10;97.70
14140;DHT22;7150;53.514;9.988;2023-06-26T02:24:45;24.10;97.70
14140;DHT22;7150;53.514;9.988;2023-06-26T02:27:10;24.10;97.60
14140;DHT22;7150;53.514;9.988;2023-06-26T02:29:36;24.10;97.50
14140;DHT22;7150;53.514;9.988;2023-06-26T02:32:02;24.10;97.60
14140;DHT22;7150;53.514;9.988;2023-06-26T02:34:27;24.10;97.60
14140;DHT22;7150;53.514;9.988;2023-06-26T02:36:53;24.10;97.70
14140;DHT22;7150;53.514;9.988;2023-06-26T02:39:21;24.00;97.60
14140;DHT22;7150;53.514;9.988;2023-06-26T02:41:47;24.00;97.70
14140;DHT22;7150;53.514;9.988;2023-06-26T02:44:13;23.90;97.70
14140;DHT22;7150;53.514;9.988;2023-06-26T02:46:39;23.90;97.80
14140;DHT22;7150;53.514;9.988;2023-06-26T02:49:05;23.90;97.70
14140;DHT22;7150;53.514;9.988;2023-06-26T02:51:34;23.90;97.60
14140;DHT22;7150;53.514;9.988;2023-06-26T02:54:00;23.90;97.70
14140;DHT22;7150;53.514;9.988;2023-06-26T02:56:26;23.90;97.60
14140;DHT22;7150;53.514;9.988;2023-06-26T02:58:55;23.90;97.60
14140;DHT22;7150;53.514;9.988;2023-06-26T03:01:21;23.90;97.60
14140;DHT22;7150;53.514;9.988;2023-06-26T03:03:46;23.90;97.60
14140;DHT22;7150;53.514;9.988;2023-06-26T03:06:12;23.90;97.60
14140;DHT22;7150;53.514;9.988;2023-06-26T03:08:38;23.90;97.60
14140;DHT22;7150;53.514;9.988;2023-06-26T03:11:05;23.90;97.60
14140;DHT22;7150;53.514;9.988;2023-06-26T03:13:31;23.90;97.60
14140;DHT22;7150;53.514;9.988;2023-06-26T03:15:57;23.90;97.70
14140;DHT22;7150;53.514;9.988;2023-06-26T03:18:22;23.80;97.70
14140;DHT22;7150;53.514;9.988;2023-06-26T03:20:48;23.80;97.80
14140;DHT22;7150;53.514;9.988;2023-06-26T03:23:13;23.70;98.00
14140;DHT22;7150;53.514;9.988;2023-06-26T03:25:39;23.70;98.30
14140;DHT22;7150;53.514;9.988;2023-06-26T03:28:04;23.70;98.00
14140;DHT22;7150;53.514;9.988;2023-06-26T03:30:30;23.70;98.00
14140;DHT22;7150;53.514;9.988;2023-06-26T03:32:55;23.70;98.00
14140;DHT22;7150;53.514;9.988;2023-06-26T03:35:21;23.70;98.10
14140;DHT22;7150;53.514;9.988;2023-06-26T03:37:48;23.60;98.10
14140;DHT22;7150;53.514;9.988;2023-06-26T03:40:14;23.60;98.30
14140;DHT22;7150;53.514;9.988;2023-06-26T03:42:39;23.60;98.30
14140;DHT22;7150;53.514;9.988;2023-06-26T03:45:05;23.60;98.40
14140;DHT22;7150;53.514;9.988;2023-06-26T03:47:31;23.60;98.20
14140;DHT22;7150;53.514;9.988;2023-06-26T03:49:56;23.60;98.30
14140;DHT22;7150;53.514;9.988;2023-06-26T03:52:22;23.60;98.40
14140;DHT22;7150;53.514;9.988;2023-06-26T03:54:47;23.60;98.30
14140;DHT22;7150;53.514;9.988;2023-06-26T03:57:14;23.60;98.30
14140;DHT22;7150;53.514;9.988;2023-06-26T03:59:39;23.60;98.40
14140;DHT22;7150;53.514;9.988;2023-06-26T04:02:05;23.60;98.40
14140;DHT22;7150;53.514;9.988;2023-06-26T04:04:30;23.60;98.50
14140;DHT22;7150;53.514;9.988;2023-06-26T04:06:56;23.60;98.50
14140;DHT22;7150;53.514;9.988;2023-06-26T04:09:24;23.50;98.60
14140;DHT22;7150;53.514;9.988;2023-06-26T04:11:50;23.50;98.80
14140;DHT22;7150;53.514;9.988;2023-06-26T04:14:15;23.50;98.70
14140;DHT22;7150;53.514;9.988;2023-06-26T04:16:41;23.50;98.60
14140;DHT22;7150;53.514;9.988;2023-06-26T04:19:06;23.60;98.70
14140;DHT22;7150;53.514;9.988;2023-06-26T04:21:32;23.50;98.60
14140;DHT22;7150;53.514;9.988;2023-06-26T04:23:57;23.50;98.70
14140;DHT22;7150;53.514;9.988;2023-06-26T04:26:23;23.50;98.60
14140;DHT22;7150;53.514;9.988;2023-06-26T04:28:48;23.50;98.70
14140;DHT22;7150;53.514;9.988;2023-06-26T04:31:14;23.50;98.60
14140;DHT22;7150;53.514;9.988;2023-06-26T04:33:39;23.50;98.70
14140;DHT22;7150;53.514;9.988;2023-06-26T04:36:05;23.60;98.80
14140;DHT22;7150;53.514;9.988;2023-06-26T04:38:34;23.60;98.70
14140;DHT22;7150;53.514;9.988;2023-06-26T04:41:01;23.50;98.90
14140;DHT22;7150;53.514;9.988;2023-06-26T04:43:26;23.50;98.90
14140;DHT22;7150;53.514;9.988;2023-06-26T04:45:52;23.50;98.90
14140;DHT22;7150;53.514;9.988;2023-06-26T04:48:17;23.50;99.00
14140;DHT22;7150;53.514;9.988;2023-06-26T04:50:43;23.50;99.10
14140;DHT22;7150;53.514;9.988;2023-06-26T04:53:08;23.60;99.10
14140;DHT22;7150;53.514;9.988;2023-06-26T04:55:34;23.60;99.00
14140;DHT22;7150;53.514;9.988;2023-06-26T04:58:00;23.60;99.10
14140;DHT22;7150;53.514;9.988;2023-06-26T05:00:25;23.60;99.10
14140;DHT22;7150;53.514;9.988;2023-06-26T05:02:51;23.60;99.10
14140;DHT22;7150;53.514;9.988;2023-06-26T05:05:27;23.70;99.10
14140;DHT22;7150;53.514;9.988;2023-06-26T05:07:57;23.70;99.20
14140;DHT22;7150;53.514;9.988;2023-06-26T05:10:22;23.70;99.30
14140;DHT22;7150;53.514;9.988;2023-06-26T05:12:48;23.70;99.20
14140;DHT22;7150;53.514;9.988;2023-06-26T05:15:13;23.70;99.30
14140;DHT22;7150;53.514;9.988;2023-06-26T05:17:39;23.80;99.30
14140;DHT22;7150;53.514;9.988;2023-06-26T05:20:05;23.70;99.20
14140;DHT22;7150;53.514;9.988;2023-06-26T05:22:32;23.80;99.20
14140;DHT22;7150;53.514;9.988;2023-06-26T05:24:58;23.80;99.30
14140;DHT22;7150;53.514;9.988;2023-06-26T05:27:26;23.80;99.30
14140;DHT22;7150;53.514;9.988;2023-06-26T05:29:52;23.80;99.70
14140;DHT22;7150;53.514;9.988;2023-06-26T05:32:17;23.80;99.50
14140;DHT22;7150;53.514;9.988;2023-06-26T05:34:47;23.90;99.70
14140;DHT22;7150;53.514;9.988;2023-06-26T05:37:18;23.90;99.90
14140;DHT22;7150;53.514;9.988;2023-06-26T05:39:45;23.90;99.90
14140;DHT22;7150;53.514;9.988;2023-06-26T05:42:11;23.90;99.90
14140;DHT22;7150;53.514;9.988;2023-06-26T05:44:37;23.90;99.90
14140;DHT22;7150;53.514;9.988;2023-06-26T05:47:03;23.90;99.90
14140;DHT22;7150;53.514;9.988;2023-06-26T05:49:28;23.90;99.90
14140;DHT22;7150;53.514;9.988;2023-06-26T05:51:54;23.90;99.90
14140;DHT22;7150;53.514;9.988;2023-06-26T05:54:19;23.90;99.90
14140;DHT22;7150;53.514;9.988;2023-06-26T05:56:46;23.90;99.90
14140;DHT22;7150;53.514;9.988;2023-06-26T05:59:14;24.00;99.90
14140;DHT22;7150;53.514;9.988;2023-06-26T06:01:40;24.00;99.70
14140;DHT22;7150;53.514;9.988;2023-06-26T06:04:05;24.00;99.50
14140;DHT22;7150;53.514;9.988;2023-06-26T06:06:31;24.00;99.70
14140;DHT22;7150;53.514;9.988;2023-06-26T06:08:56;24.00;99.50
14140;DHT22;7150;53.514;9.988;2023-06-26T06:11:22;24.00;99.10
14140;DHT22;7150;53.514;9.988;2023-06-26T06:13:48;24.00;98.80
14140;DHT22;7150;53.514;9.988;2023-06-26T06:16:13;24.00;98.60
14140;DHT22;7150;53.514;9.988;2023-06-26T06:18:39;24.10;98.80
14140;DHT22;7150;53.514;9.988;2023-06-26T06:21:04;24.10;98.90
14140;DHT22;7150;53.514;9.988;2023-06-26T06:23:30;24.10;98.60
14140;DHT22;7150;53.514;9.988;2023-06-26T06:25:55;24.10;98.60
14140;DHT22;7150;53.514;9.988;2023-06-26T06:28:21;24.20;98.30
14140;DHT22;7150;53.514;9.988;2023-06-26T06:30:46;24.20;98.40
14140;DHT22;7150;53.514;9.988;2023-06-26T06:33:15;24.20;98.40
14140;DHT22;7150;53.514;9.988;2023-06-26T06:35:41;24.20;98.60
14140;DHT22;7150;53.514;9.988;2023-06-26T06:38:07;24.20;98.40
14140;DHT22;7150;53.514;9.988;2023-06-26T06:40:32;24.20;98.50
14140;DHT22;7150;53.514;9.988;2023-06-26T06:42:57;24.20;98.50
14140;DHT22;7150;53.514;9.988;2023-06-26T06:45:23;24.30;98.70
14140;DHT22;7150;53.514;9.988;2023-06-26T06:47:48;24.30;98.60
14140;DHT22;7150;53.514;9.988;2023-06-26T06:50:14;24.40;98.70
14140;DHT22;7150;53.514;9.988;2023-06-26T06:52:42;24.30;98.70
14140;DHT22;7150;53.514;9.988;2023-06-26T06:55:08;24.40;98.70
14140;DHT22;7150;53.514;9.988;2023-06-26T06:57:36;24.40;98.90
14140;DHT22;7150;53.514;9.988;2023-06-26T07:00:10;24.40;99.10
14140;DHT22;7150;53.514;9.988;2023-06-26T07:02:42;24.40;99.20
14140;DHT22;7150;53.514;9.988;2023-06-26T07:05:08;24.40;99.10
14140;DHT22;7150;53.514;9.988;2023-06-26T07:07:35;24.50;99.00
14140;DHT22;7150;53.514;9.988;2023-06-26T07:10:12;24.50;99.00
14140;DHT22;7150;53.514;9.988;2023-06-26T07:12:38;24.50;99.00
14140;DHT22;7150;53.514;9.988;2023-06-26T07:15:05;24.60;99.10
14140;DHT22;7150;53.514;9.988;2023-06-26T07:17:32;24.60;99.00
14140;DHT22;7150;53.514;9.988;2023-06-26T07:19:57;24.60;99.10
14140;DHT22;7150;53.514;9.988;2023-06-26T07:22:23;24.70;99.20
14140;DHT22;7150;53.514;9.988;2023-06-26T07:24:49;24.70;99.20
14140;DHT22;7150;53.514;9.988;2023-06-26T07:27:15;24.60;99.30
14140;DHT22;7150;53.514;9.988;2023-06-26T07:29:42;24.70;99.30
14140;DHT22;7150;53.514;9.988;2023-06-26T07:32:07;24.70;99.30
14140;DHT22;7150;53.514;9.988;2023-06-26T07:34:33;24.80;99.20
14140;DHT22;7150;53.514;9.988;2023-06-26T07:36:59;24.80;99.10
14140;DHT22;7150;53.514;9.988;2023-06-26T07:39:24;24.80;99.00
14140;DHT22;7150;53.514;9.988;2023-06-26T07:41:50;24.80;99.00
14140;DHT22;7150;53.514;9.988;2023-06-26T07:44:15;24.90;99.10
14140;DHT22;7150;53.514;9.988;2023-06-26T07:46:41;24.90;98.60
14140;DHT22;7150;53.514;9.988;2023-06-26T07:49:06;24.90;98.60
14140;DHT22;7150;53.514;9.988;2023-06-26T07:51:32;24.90;98.20
14140;DHT22;7150;53.514;9.988;2023-06-26T07:53:57;25.00;97.60
14140;DHT22;7150;53.514;9.988;2023-06-26T07:56:23;25.00;97.70
14140;DHT22;7150;53.514;9.988;2023-06-26T07:58:48;25.00;97.10
14140;DHT22;7150;53.514;9.988;2023-06-26T08:01:14;25.00;96.90
14140;DHT22;7150;53.514;9.988;2023-06-26T08:03:39;25.00;97.00
14140;DHT22;7150;53.514;9.988;2023-06-26T08:06:05;25.10;96.80
14140;DHT22;7150;53.514;9.988;2023-06-26T08:08:31;25.20;96.50
14140;DHT22;7150;53.514;9.988;2023-06-26T08:10:56;25.20;96.80
14140;DHT22;7150;53.514;9.988;2023-06-26T08:13:22;25.20;96.80
14140;DHT22;7150;53.514;9.988;2023-06-26T08:15:47;25.30;96.80
14140;DHT22;7150;53.514;9.988;2023-06-26T08:18:13;25.30;97.10
14140;DHT22;7150;53.514;9.988;2023-06-26T08:20:38;25.40;97.40
14140;DHT22;7150;53.514;9.988;2023-06-26T08:23:04;25.40;96.50
14140;DHT22;7150;53.514;9.988;2023-06-26T08:25:30;25.40;96.00
14140;DHT22;7150;53.514;9.988;2023-06-26T08:27:55;25.40;95.90
14140;DHT22;7150;53.514;9.988;2023-06-26T08:30:21;25.50;95.00
14140;DHT22;7150;53.514;9.988;2023-06-26T08:32:47;25.50;94.90
14140;DHT22;7150;53.514;9.988;2023-06-26T08:35:12;25.50;94.40
14140;DHT22;7150;53.514;9.988;2023-06-26T08:37:38;25.60;94.20
14140;DHT22;7150;53.514;9.988;2023-06-26T08:40:04;25.60;94.10
14140;DHT22;7150;53.514;9.988;2023-06-26T08:42:29;25.70;94.00
14140;DHT22;7150;53.514;9.988;2023-06-26T08:44:55;25.70;94.60
14140;DHT22;7150;53.514;9.988;2023-06-26T08:47:21;25.70;94.30
14140;DHT22;7150;53.514;9.988;2023-06-26T08:49:50;25.80;94.20
14140;DHT22;7150;53.514;9.988;2023-06-26T08:52:23;25.80;94.00
14140;DHT22;7150;53.514;9.988;2023-06-26T08:54:54;25.80;94.20
14140;DHT22;7150;53.514;9.988;2023-06-26T08:57:23;25.70;94.00
14140;DHT22;7150;53.514;9.988;2023-06-26T08:59:48;25.70;94.00
14140;DHT22;7150;53.514;9.988;2023-06-26T09:02:14;25.60;94.10
14140;DHT22;7150;53.514;9.988;2023-06-26T09:04:40;25.70;94.70
14140;DHT22;7150;53.514;9.988;2023-06-26T09:07:06;25.80;94.60
14140;DHT22;7150;53.514;9.988;2023-06-26T09:09:32;25.80;94.80
14140;DHT22;7150;53.514;9.988;2023-06-26T09:11:57;25.90;95.10
14140;DHT22;7150;53.514;9.988;2023-06-26T09:14:24;25.80;94.60
14140;DHT22;7150;53.514;9.988;2023-06-26T09:16:50;25.80;94.60
14140;DHT22;7150;53.514;9.988;2023-06-26T09:19:15;25.80;94.70
14140;DHT22;7150;53.514;9.988;2023-06-26T09:21:42;25.80;94.90
14140;DHT22;7150;53.514;9.988;2023-06-26T09:24:08;25.70;94.90
14140;DHT22;7150;53.514;9.988;2023-06-26T09:26:36;25.90;95.30
14140;DHT22;7150;53.514;9.988;2023-06-26T09:29:03;25.90;95.10
14140;DHT22;7150;53.514;9.988;2023-06-26T09:31:29;26.00;95.30
14140;DHT22;7150;53.514;9.988;2023-06-26T09:34:00;26.00;95.10
14140;DHT22;7150;53.514;9.988;2023-06-26T09:36:28;26.00;94.90
14140;DHT22;7150;53.514;9.988;2023-06-26T09:38:54;26.00;95.00
14140;DHT22;7150;53.514;9.988;2023-06-26T09:41:20;26.00;95.20
14140;DHT22;7150;53.514;9.988;2023-06-26T09:43:49;25.90;95.20
14140;DHT22;7150;53.514;9.988;2023-06-26T09:46:25;25.90;95.20
14140;DHT22;7150;53.514;9.988;2023-06-26T09:49:09;25.90;95.20
14140;DHT22;7150;53.514;9.988;2023-06-26T09:51:36;25.90;95.10
14140;DHT22;7150;53.514;9.988;2023-06-26T09:54:04;25.90;94.90
14140;DHT22;7150;53.514;9.988;2023-06-26T09:56:30;25.70;94.90
14140;DHT22;7150;53.514;9.988;2023-06-26T09:58:56;25.70;94.90
14140;DHT22;7150;53.514;9.988;2023-06-26T10:01:23;25.70;94.90
14140;DHT22;7150;53.514;9.988;2023-06-26T10:03:49;25.70;95.00
14140;DHT22;7150;53.514;9.988;2023-06-26T10:07:04;25.70;95.30
14140;DHT22;7150;53.514;9.988;2023-06-26T10:09:03;25.60;95.50
14140;DHT22;7150;53.514;9.988;2023-06-26T10:11:40;25.50;95.70
14140;DHT22;7150;53.514;9.988;2023-06-26T10:14:07;25.50;96.40
14140;DHT22;7150;53.514;9.988;2023-06-26T10:16:35;25.50;98.00
14140;DHT22;7150;53.514;9.988;2023-06-26T10:19:05;25.30;99.10
14140;DHT22;7150;53.514;9.988;2023-06-26T10:21:32;25.20;99.80
14140;DHT22;7150;53.514;9.988;2023-06-26T10:24:00;24.60;99.90
14140;DHT22;7150;53.514;9.988;2023-06-26T10:26:26;24.50;99.90
14140;DHT22;7150;53.514;9.988;2023-06-26T10:28:54;24.20;99.90
14140;DHT22;7150;53.514;9.988;2023-06-26T10:31:22;24.20;99.90
14140;DHT22;7150;53.514;9.988;2023-06-26T10:33:49;24.10;99.90
14140;DHT22;7150;53.514;9.988;2023-06-26T10:36:17;24.00;99.90
14140;DHT22;7150;53.514;9.988;2023-06-26T10:41:19;24.00;99.90
14140;DHT22;7150;53.514;9.988;2023-06-26T10:43:49;24.00;99.90
14140;DHT22;7150;53.514;9.988;2023-06-26T10:46:18;23.90;99.90
14140;DHT22;7150;53.514;9.988;2023-06-26T10:48:57;23.80;99.90
14140;DHT22;7150;53.514;9.988;2023-06-26T10:51:24;23.70;99.90
14140;DHT22;7150;53.514;9.988;2023-06-26T10:53:54;23.50;99.90
14140;DHT22;7150;53.514;9.988;2023-06-26T10:56:19;23.50;99.90
14140;DHT22;7150;53.514;9.988;2023-06-26T10:58:45;23.40;99.90
14140;DHT22;7150;53.514;9.988;2023-06-26T11:04:06;23.50;99.90
14140;DHT22;7150;53.514;9.988;2023-06-26T11:06:33;23.50;99.90
14140;DHT22;7150;53.514;9.988;2023-06-26T11:09:06;23.60;99.90
14140;DHT22;7150;53.514;9.988;2023-06-26T11:14:18;23.80;99.90
14140;DHT22;7150;53.514;9.988;2023-06-26T11:16:43;23.80;99.90
14140;DHT22;7150;53.514;9.988;2023-06-26T11:19:13;23.80;99.90
14140;DHT22;7150;53.514;9.988;2023-06-26T11:21:39;23.90;99.90
14140;DHT22;7150;53.514;9.988;2023-06-26T11:24:06;23.90;99.90
14140;DHT22;7150;53.514;9.988;2023-06-26T11:26:38;24.00;99.90
14140;DHT22;7150;53.514;9.988;2023-06-26T11:29:04;24.00;99.90
14140;DHT22;7150;53.514;9.988;2023-06-26T11:31:31;23.90;99.90
14140;DHT22;7150;53.514;9.988;2023-06-26T11:34:03;23.90;99.90
14140;DHT22;7150;53.514;9.988;2023-06-26T11:36:30;23.80;99.90
14140;DHT22;7150;53.514;9.988;2023-06-26T11:39:00;23.90;99.90
14140;DHT22;7150;53.514;9.988;2023-06-26T11:41:30;23.90;99.90
14140;DHT22;7150;53.514;9.988;2023-06-26T11:43:59;23.90;99.90
14140;DHT22;7150;53.514;9.988;2023-06-26T11:46:25;23.90;99.90
14140;DHT22;7150;53.514;9.988;2023-06-26T11:48:50;23.80;99.90
14140;DHT22;7150;53.514;9.988;2023-06-26T11:51:17;23.60;99.90
14140;DHT22;7150;53.514;9.988;2023-06-26T11:53:44;23.60;99.90
14140;DHT22;7150;53.514;9.988;2023-06-26T11:56:11;23.70;99.90
14140;DHT22;7150;53.514;9.988;2023-06-26T12:01:20;24.20;99.20
14140;DHT22;7150;53.514;9.988;2023-06-26T12:03:48;24.30;98.60
14140;DHT22;7150;53.514;9.988;2023-06-26T12:06:14;24.30;99.00
14140;DHT22;7150;53.514;9.988;2023-06-26T12:08:40;24.40;98.80
14140;DHT22;7150;53.514;9.988;2023-06-26T12:11:06;24.30;98.60
14140;DHT22;7150;53.514;9.988;2023-06-26T12:13:32;24.30;98.30
14140;DHT22;7150;53.514;9.988;2023-06-26T12:15:57;24.20;97.40
14140;DHT22;7150;53.514;9.988;2023-06-26T12:18:23;24.00;95.90
14140;DHT22;7150;53.514;9.988;2023-06-26T12:20:51;24.10;97.10
14140;DHT22;7150;53.514;9.988;2023-06-26T12:23:17;24.40;96.60
14140;DHT22;7150;53.514;9.988;2023-06-26T12:25:43;24.40;95.50
14140;DHT22;7150;53.514;9.988;2023-06-26T12:28:16;24.40;95.20
14140;DHT22;7150;53.514;9.988;2023-06-26T12:30:46;24.50;95.30
14140;DHT22;7150;53.514;9.988;2023-06-26T12:33:14;24.70;94.70
14140;DHT22;7150;53.514;9.988;2023-06-26T12:35:41;24.80;94.20
14140;DHT22;7150;53.514;9.988;2023-06-26T12:38:08;24.80;93.60
14140;DHT22;7150;53.514;9.988;2023-06-26T12:40:35;24.90;93.60
14140;DHT22;7150;53.514;9.988;2023-06-26T12:43:11;25.00;93.20
14140;DHT22;7150;53.514;9.988;2023-06-26T12:45:37;24.90;92.80
14140;DHT22;7150;53.514;9.988;2023-06-26T12:48:12;24.80;92.00
14140;DHT22;7150;53.514;9.988;2023-06-26T12:50:46;24.90;92.40
14140;DHT22;7150;53.514;9.988;2023-06-26T12:53:13;25.20;91.80
14140;DHT22;7150;53.514;9.988;2023-06-26T12:55:38;25.40;90.00
14140;DHT22;7150;53.514;9.988;2023-06-26T12:58:04;25.70;89.50
14140;DHT22;7150;53.514;9.988;2023-06-26T13:00:29;25.90;88.20
14140;DHT22;7150;53.514;9.988;2023-06-26T13:02:56;25.90;87.40
14140;DHT22;7150;53.514;9.988;2023-06-26T13:05:21;25.40;88.30
14140;DHT22;7150;53.514;9.988;2023-06-26T13:07:47;25.20;89.10
14140;DHT22;7150;53.514;9.988;2023-06-26T13:10:12;25.20;90.00
14140;DHT22;7150;53.514;9.988;2023-06-26T13:12:38;25.40;90.60
14140;DHT22;7150;53.514;9.988;2023-06-26T13:15:04;25.60;88.90
14140;DHT22;7150;53.514;9.988;2023-06-26T13:17:30;25.50;87.30
14140;DHT22;7150;53.514;9.988;2023-06-26T13:19:55;25.00;86.10
14140;DHT22;7150;53.514;9.988;2023-06-26T13:22:21;25.10;86.70
14140;DHT22;7150;53.514;9.988;2023-06-26T13:24:46;25.10;88.10
14140;DHT22;7150;53.514;9.988;2023-06-26T13:27:12;25.10;89.30
14140;DHT22;7150;53.514;9.988;2023-06-26T13:29:38;25.30;88.10
14140;DHT22;7150;53.514;9.988;2023-06-26T13:32:04;25.20;87.00
14140;DHT22;7150;53.514;9.988;2023-06-26T13:34:30;25.10;85.70
14140;DHT22;7150;53.514;9.988;2023-06-26T13:36:56;24.90;85.50
14140;DHT22;7150;53.514;9.988;2023-06-26T13:39:21;24.60;84.90
14140;DHT22;7150;53.514;9.988;2023-06-26T13:41:47;24.50;84.50
14140;DHT22;7150;53.514;9.988;2023-06-26T13:44:13;24.60;85.30
14140;DHT22;7150;53.514;9.988;2023-06-26T13:46:38;24.60;84.20
14140;DHT22;7150;53.514;9.988;2023-06-26T13:49:03;24.70;84.10
14140;DHT22;7150;53.514;9.988;2023-06-26T13:51:29;24.90;85.10
14140;DHT22;7150;53.514;9.988;2023-06-26T13:53:54;25.00;83.90
14140;DHT22;7150;53.514;9.988;2023-06-26T13:56:25;25.00;84.10
14140;DHT22;7150;53.514;9.988;2023-06-26T13:58:51;25.00;84.30
14140;DHT22;7150;53.514;9.988;2023-06-26T14:01:16;24.90;82.30
14140;DHT22;7150;53.514;9.988;2023-06-26T14:03:41;24.70;83.60
14140;DHT22;7150;53.514;9.988;2023-06-26T14:06:07;24.60;83.10
14140;DHT22;7150;53.514;9.988;2023-06-26T14:08:32;24.80;84.20
14140;DHT22;7150;53.514;9.988;2023-06-26T14:10:58;24.90;82.60
14140;DHT22;7150;53.514;9.988;2023-06-26T14:13:24;25.10;83.30
14140;DHT22;7150;53.514;9.988;2023-06-26T14:15:50;25.10;83.80
14140;DHT22;7150;53.514;9.988;2023-06-26T14:18:18;25.10;82.10
14140;DHT22;7150;53.514;9.988;2023-06-26T14:20:44;25.00;82.60
14140;DHT22;7150;53.514;9.988;2023-06-26T14:23:10;25.00;82.90
14140;DHT22;7150;53.514;9.988;2023-06-26T14:25:35;25.10;82.50
14140;DHT22;7150;53.514;9.988;2023-06-26T14:28:01;25.20;81.80
14140;DHT22;7150;53.514;9.988;2023-06-26T14:30:27;25.30;79.70
14140;DHT22;7150;53.514;9.988;2023-06-26T14:32:52;25.40;79.50
14140;DHT22;7150;53.514;9.988;2023-06-26T14:35:18;25.60;79.70
14140;DHT22;7150;53.514;9.988;2023-06-26T14:37:44;25.90;81.20
14140;DHT22;7150;53.514;9.988;2023-06-26T14:40:10;25.70;77.60
14140;DHT22;7150;53.514;9.988;2023-06-26T14:42:35;25.60;75.70
14140;DHT22;7150;53.514;9.988;2023-06-26T14:45:01;25.70;76.50
14140;DHT22;7150;53.514;9.988;2023-06-26T14:47:27;25.50;75.70
14140;DHT22;7150;53.514;9.988;2023-06-26T14:49:52;25.50;76.20
14140;DHT22;7150;53.514;9.988;2023-06-26T14:52:18;25.70;75.40
14140;DHT22;7150;53.514;9.988;2023-06-26T14:54:43;25.80;74.50
14140;DHT22;7150;53.514;9.988;2023-06-26T14:57:09;25.90;74.60
14140;DHT22;7150;53.514;9.988;2023-06-26T14:59:34;25.90;73.70
14140;DHT22;7150;53.514;9.988;2023-06-26T15:02:00;25.80;72.20
14140;DHT22;7150;53.514;9.988;2023-06-26T15:04:25;25.60;74.30
14140;DHT22;7150;53.514;9.988;2023-06-26T15:06:52;25.70;74.00
14140;DHT22;7150;53.514;9.988;2023-06-26T15:09:17;25.60;75.10
14140;DHT22;7150;53.514;9.988;2023-06-26T15:11:43;25.80;74.70
14140;DHT22;7150;53.514;9.988;2023-06-26T15:14:08;26.20;74.40
14140;DHT22;7150;53.514;9.988;2023-06-26T15:16:34;26.70;71.30
14140;DHT22;7150;53.514;9.988;2023-06-26T15:18:59;27.30;71.80
14140;DHT22;7150;53.514;9.988;2023-06-26T15:21:25;28.10;69.50
14140;DHT22;7150;53.514;9.988;2023-06-26T15:23:51;28.60;68.70
14140;DHT22;7150;53.514;9.988;2023-06-26T15:26:17;29.10;67.40
14140;DHT22;7150;53.514;9.988;2023-06-26T15:28:42;29.20;66.10
14140;DHT22;7150;53.514;9.988;2023-06-26T15:31:08;28.80;67.80
14140;DHT22;7150;53.514;9.988;2023-06-26T15:33:33;28.50;66.90
14140;DHT22;7150;53.514;9.988;2023-06-26T15:35:59;27.90;67.10
14140;DHT22;7150;53.514;9.988;2023-06-26T15:38:25;27.40;68.80
14140;DHT22;7150;53.514;9.988;2023-06-26T15:40:51;26.90;70.60
14140;DHT22;7150;53.514;9.988;2023-06-26T15:43:17;26.60;71.70
14140;DHT22;7150;53.514;9.988;2023-06-26T15:45:43;26.20;71.50
14140;DHT22;7150;53.514;9.988;2023-06-26T15:48:08;26.30;73.30
14140;DHT22;7150;53.514;9.988;2023-06-26T15:50:34;26.20;69.70
14140;DHT22;7150;53.514;9.988;2023-06-26T15:53:02;26.40;69.50